North Industry, Ohio
Current Conditions -  °F | °C
As of 9:24 AM on Thursday 27 Nov 2014 (Local Time) from KCAK Reporting Station
Light Snow Light Snow  
Wind Chill: 27°   Ceiling: 500
Heat Index: 34°   Visibility: 0.75mi
Dew Point: 28°   Wind: 8mph
Humidity: 81%   Direction: 320°NW
Pressure: 30.07"   Gusts: NA
Location:  40.7612°N, 81.35°W
Report Text: KCAK 271424Z 32007KT 3/4SM -SN BR OVC005 01/M02 A3007 RMK AO2 VIS 1/2V1 P0001 RVRNO
Loading
Personal Weather Stations






























Interactive Weather Map New forecast layout! Learn more

10-Day Weather Forecast

Advertisements
Track Severe Weather on mobile